sensor_id;sensor_type;location;lat;lon;timestamp;temperature;humidity
15819;DHT22;8010;53.986;12.106;2023-10-31T00:00:33;10.70;99.90
15819;DHT22;8010;53.986;12.106;2023-10-31T00:02:59;10.60;99.90
15819;DHT22;8010;53.986;12.106;2023-10-31T00:05:24;10.60;99.90
15819;DHT22;8010;53.986;12.106;2023-10-31T00:07:50;10.60;99.90
15819;DHT22;8010;53.986;12.106;2023-10-31T00:10:15;10.60;99.90
15819;DHT22;8010;53.986;12.106;2023-10-31T00:12:41;10.60;99.90
15819;DHT22;8010;53.986;12.106;2023-10-31T00:15:07;10.60;99.90
15819;DHT22;8010;53.986;12.106;2023-10-31T00:17:32;10.60;99.90
15819;DHT22;8010;53.986;12.106;2023-10-31T00:19:58;10.70;99.90
15819;DHT22;8010;53.986;12.106;2023-10-31T00:22:24;10.60;99.90
15819;DHT22;8010;53.986;12.106;2023-10-31T00:24:49;10.60;99.90
15819;DHT22;8010;53.986;12.106;2023-10-31T00:27:15;10.60;99.90
15819;DHT22;8010;53.986;12.106;2023-10-31T00:29:40;10.60;99.90
15819;DHT22;8010;53.986;12.106;2023-10-31T00:32:06;10.60;99.90
15819;DHT22;8010;53.986;12.106;2023-10-31T00:34:31;10.60;99.90
15819;DHT22;8010;53.986;12.106;2023-10-31T00:36:57;10.60;99.90
15819;DHT22;8010;53.986;12.106;2023-10-31T00:39:22;10.60;99.90
15819;DHT22;8010;53.986;12.106;2023-10-31T00:41:48;10.60;99.90
15819;DHT22;8010;53.986;12.106;2023-10-31T00:44:13;10.60;99.90
15819;DHT22;8010;53.986;12.106;2023-10-31T00:46:39;10.70;99.90
15819;DHT22;8010;53.986;12.106;2023-10-31T00:49:05;10.70;99.90
15819;DHT22;8010;53.986;12.106;2023-10-31T00:51:30;10.70;99.90
15819;DHT22;8010;53.986;12.106;2023-10-31T00:53:56;10.70;99.90
15819;DHT22;8010;53.986;12.106;2023-10-31T00:56:21;10.60;99.90
15819;DHT22;8010;53.986;12.106;2023-10-31T00:58:47;10.70;99.90
15819;DHT22;8010;53.986;12.106;2023-10-31T01:01:13;10.60;99.90
15819;DHT22;8010;53.986;12.106;2023-10-31T01:03:39;10.70;99.90
15819;DHT22;8010;53.986;12.106;2023-10-31T01:06:05;10.60;99.90
15819;DHT22;8010;53.986;12.106;2023-10-31T01:08:30;10.60;99.90
15819;DHT22;8010;53.986;12.106;2023-10-31T01:10:56;10.70;99.90
15819;DHT22;8010;53.986;12.106;2023-10-31T01:13:22;10.60;99.90
15819;DHT22;8010;53.986;12.106;2023-10-31T01:15:47;10.60;99.90
15819;DHT22;8010;53.986;12.106;2023-10-31T01:18:13;10.60;99.90
15819;DHT22;8010;53.986;12.106;2023-10-31T01:20:39;10.60;99.90
15819;DHT22;8010;53.986;12.106;2023-10-31T01:23:04;10.60;99.90
15819;DHT22;8010;53.986;12.106;2023-10-31T01:25:30;10.60;99.90
15819;DHT22;8010;53.986;12.106;2023-10-31T01:27:55;10.60;99.90
15819;DHT22;8010;53.986;12.106;2023-10-31T01:30:21;10.60;99.90
15819;DHT22;8010;53.986;12.106;2023-10-31T01:32:46;10.60;99.90
15819;DHT22;8010;53.986;12.106;2023-10-31T01:35:12;10.60;99.90
15819;DHT22;8010;53.986;12.106;2023-10-31T01:37:38;10.70;99.90
15819;DHT22;8010;53.986;12.106;2023-10-31T01:40:04;10.60;99.90
15819;DHT22;8010;53.986;12.106;2023-10-31T01:42:29;10.60;99.90
15819;DHT22;8010;53.986;12.106;2023-10-31T01:44:55;10.60;99.90
15819;DHT22;8010;53.986;12.106;2023-10-31T01:47:21;10.60;99.90
15819;DHT22;8010;53.986;12.106;2023-10-31T01:49:49;10.60;99.90
15819;DHT22;8010;53.986;12.106;2023-10-31T01:52:14;10.60;99.90
15819;DHT22;8010;53.986;12.106;2023-10-31T01:54:40;10.70;99.90
15819;DHT22;8010;53.986;12.106;2023-10-31T01:57:06;10.70;99.90
15819;DHT22;8010;53.986;12.106;2023-10-31T01:59:31;10.60;99.90
15819;DHT22;8010;53.986;12.106;2023-10-31T02:01:57;10.60;99.90
15819;DHT22;8010;53.986;12.106;2023-10-31T02:04:23;10.70;99.90
15819;DHT22;8010;53.986;12.106;2023-10-31T02:06:49;10.70;99.90
15819;DHT22;8010;53.986;12.106;2023-10-31T02:09:15;10.70;99.90
15819;DHT22;8010;53.986;12.106;2023-10-31T02:11:41;10.70;99.90
15819;DHT22;8010;53.986;12.106;2023-10-31T02:14:06;10.70;99.90
15819;DHT22;8010;53.986;12.106;2023-10-31T02:16:32;10.70;99.90
15819;DHT22;8010;53.986;12.106;2023-10-31T02:18:57;10.60;99.90
15819;DHT22;8010;53.986;12.106;2023-10-31T02:21:25;10.60;99.90
15819;DHT22;8010;53.986;12.106;2023-10-31T02:24:02;10.70;99.90
15819;DHT22;8010;53.986;12.106;2023-10-31T02:26:34;10.70;99.90
15819;DHT22;8010;53.986;12.106;2023-10-31T02:29:00;10.60;99.90
15819;DHT22;8010;53.986;12.106;2023-10-31T02:31:26;10.70;99.90
15819;DHT22;8010;53.986;12.106;2023-10-31T02:33:52;10.70;99.90
15819;DHT22;8010;53.986;12.106;2023-10-31T02:36:18;10.70;99.90
15819;DHT22;8010;53.986;12.106;2023-10-31T02:38:44;10.70;99.90
15819;DHT22;8010;53.986;12.106;2023-10-31T02:41:11;10.70;99.90
15819;DHT22;8010;53.986;12.106;2023-10-31T02:43:37;10.60;99.90
15819;DHT22;8010;53.986;12.106;2023-10-31T02:46:03;10.70;99.90
15819;DHT22;8010;53.986;12.106;2023-10-31T02:48:29;10.70;99.90
15819;DHT22;8010;53.986;12.106;2023-10-31T02:50:57;10.70;99.90
15819;DHT22;8010;53.986;12.106;2023-10-31T02:53:23;10.70;99.90
15819;DHT22;8010;53.986;12.106;2023-10-31T02:55:48;10.70;99.90
15819;DHT22;8010;53.986;12.106;2023-10-31T02:58:14;10.70;99.90
15819;DHT22;8010;53.986;12.106;2023-10-31T03:00:39;10.70;99.90
15819;DHT22;8010;53.986;12.106;2023-10-31T03:03:05;10.70;99.90
15819;DHT22;8010;53.986;12.106;2023-10-31T03:05:31;10.70;99.90
15819;DHT22;8010;53.986;12.106;2023-10-31T03:07:56;10.70;99.90
15819;DHT22;8010;53.986;12.106;2023-10-31T03:10:22;10.70;99.90
15819;DHT22;8010;53.986;12.106;2023-10-31T03:12:48;10.70;99.90
15819;DHT22;8010;53.986;12.106;2023-10-31T03:15:13;10.60;99.90
15819;DHT22;8010;53.986;12.106;2023-10-31T03:17:39;10.70;99.90
15819;DHT22;8010;53.986;12.106;2023-10-31T03:20:05;10.70;99.90
15819;DHT22;8010;53.986;12.106;2023-10-31T03:22:31;10.70;99.90
15819;DHT22;8010;53.986;12.106;2023-10-31T03:24:56;10.70;99.90
15819;DHT22;8010;53.986;12.106;2023-10-31T03:27:22;10.70;99.90
15819;DHT22;8010;53.986;12.106;2023-10-31T03:29:48;10.70;99.90
15819;DHT22;8010;53.986;12.106;2023-10-31T03:32:14;10.70;99.90
15819;DHT22;8010;53.986;12.106;2023-10-31T03:34:40;10.70;99.90
15819;DHT22;8010;53.986;12.106;2023-10-31T03:37:07;10.70;99.90
15819;DHT22;8010;53.986;12.106;2023-10-31T03:39:33;10.70;99.90
15819;DHT22;8010;53.986;12.106;2023-10-31T03:41:59;10.70;99.90
15819;DHT22;8010;53.986;12.106;2023-10-31T03:44:24;10.70;99.90
15819;DHT22;8010;53.986;12.106;2023-10-31T03:46:50;10.70;99.90
15819;DHT22;8010;53.986;12.106;2023-10-31T03:49:15;10.70;99.90
15819;DHT22;8010;53.986;12.106;2023-10-31T03:51:41;10.80;99.90
15819;DHT22;8010;53.986;12.106;2023-10-31T03:54:07;10.70;99.90
15819;DHT22;8010;53.986;12.106;2023-10-31T03:56:40;10.70;99.90
15819;DHT22;8010;53.986;12.106;2023-10-31T03:59:06;10.80;99.90
15819;DHT22;8010;53.986;12.106;2023-10-31T04:01:32;10.80;99.90
15819;DHT22;8010;53.986;12.106;2023-10-31T04:03:57;10.80;99.90
15819;DHT22;8010;53.986;12.106;2023-10-31T04:06:23;10.80;99.90
15819;DHT22;8010;53.986;12.106;2023-10-31T04:08:48;10.80;99.90
15819;DHT22;8010;53.986;12.106;2023-10-31T04:11:14;10.80;99.90
15819;DHT22;8010;53.986;12.106;2023-10-31T04:13:39;10.80;99.90
15819;DHT22;8010;53.986;12.106;2023-10-31T04:16:05;10.80;99.90
15819;DHT22;8010;53.986;12.106;2023-10-31T04:18:30;10.80;99.90
15819;DHT22;8010;53.986;12.106;2023-10-31T04:20:56;10.80;99.90
15819;DHT22;8010;53.986;12.106;2023-10-31T04:23:22;10.80;99.90
15819;DHT22;8010;53.986;12.106;2023-10-31T04:25:47;10.80;99.90
15819;DHT22;8010;53.986;12.106;2023-10-31T04:28:12;10.80;99.90
15819;DHT22;8010;53.986;12.106;2023-10-31T04:30:39;10.80;99.90
15819;DHT22;8010;53.986;12.106;2023-10-31T04:33:04;10.80;99.90
15819;DHT22;8010;53.986;12.106;2023-10-31T04:35:30;10.80;99.90
15819;DHT22;8010;53.986;12.106;2023-10-31T04:37:55;10.80;99.90
15819;DHT22;8010;53.986;12.106;2023-10-31T04:40:22;10.80;99.90
15819;DHT22;8010;53.986;12.106;2023-10-31T04:42:47;10.80;99.90
15819;DHT22;8010;53.986;12.106;2023-10-31T04:45:13;10.80;99.90
15819;DHT22;8010;53.986;12.106;2023-10-31T04:47:39;10.80;99.90
15819;DHT22;8010;53.986;12.106;2023-10-31T04:50:05;10.80;99.90
15819;DHT22;8010;53.986;12.106;2023-10-31T04:52:31;10.90;99.90
15819;DHT22;8010;53.986;12.106;2023-10-31T04:54:56;10.90;99.90
15819;DHT22;8010;53.986;12.106;2023-10-31T04:57:22;10.90;99.90
15819;DHT22;8010;53.986;12.106;2023-10-31T04:59:47;10.90;99.90
15819;DHT22;8010;53.986;12.106;2023-10-31T05:02:13;10.90;99.90
15819;DHT22;8010;53.986;12.106;2023-10-31T05:04:39;10.90;99.90
15819;DHT22;8010;53.986;12.106;2023-10-31T05:07:05;10.90;99.90
15819;DHT22;8010;53.986;12.106;2023-10-31T05:09:30;10.90;99.90
15819;DHT22;8010;53.986;12.106;2023-10-31T05:11:56;10.80;99.90
15819;DHT22;8010;53.986;12.106;2023-10-31T05:14:21;10.80;99.90
15819;DHT22;8010;53.986;12.106;2023-10-31T05:16:47;10.80;99.90
15819;DHT22;8010;53.986;12.106;2023-10-31T05:19:13;10.80;99.90
15819;DHT22;8010;53.986;12.106;2023-10-31T05:21:38;10.80;99.90
15819;DHT22;8010;53.986;12.106;2023-10-31T05:24:04;10.80;99.90
15819;DHT22;8010;53.986;12.106;2023-10-31T05:26:30;10.80;99.90
15819;DHT22;8010;53.986;12.106;2023-10-31T05:28:56;10.80;99.90
15819;DHT22;8010;53.986;12.106;2023-10-31T05:31:23;10.80;99.90
15819;DHT22;8010;53.986;12.106;2023-10-31T05:33:50;10.90;99.90
15819;DHT22;8010;53.986;12.106;2023-10-31T05:36:20;10.80;99.90
15819;DHT22;8010;53.986;12.106;2023-10-31T05:38:46;10.90;99.90
15819;DHT22;8010;53.986;12.106;2023-10-31T05:41:12;10.90;99.90
15819;DHT22;8010;53.986;12.106;2023-10-31T05:43:38;10.90;99.90
15819;DHT22;8010;53.986;12.106;2023-10-31T05:46:03;10.90;99.90
15819;DHT22;8010;53.986;12.106;2023-10-31T05:48:30;10.90;99.90
15819;DHT22;8010;53.986;12.106;2023-10-31T05:50:56;10.90;99.90
15819;DHT22;8010;53.986;12.106;2023-10-31T05:53:21;10.90;99.90
15819;DHT22;8010;53.986;12.106;2023-10-31T05:55:47;10.90;99.90
15819;DHT22;8010;53.986;12.106;2023-10-31T05:58:12;10.90;99.90
15819;DHT22;8010;53.986;12.106;2023-10-31T06:00:38;10.90;99.90
15819;DHT22;8010;53.986;12.106;2023-10-31T06:03:04;10.90;99.90
15819;DHT22;8010;53.986;12.106;2023-10-31T06:05:30;10.90;99.90
15819;DHT22;8010;53.986;12.106;2023-10-31T06:07:55;10.80;99.90
15819;DHT22;8010;53.986;12.106;2023-10-31T06:10:21;10.80;99.90
15819;DHT22;8010;53.986;12.106;2023-10-31T06:12:47;10.90;99.90
15819;DHT22;8010;53.986;12.106;2023-10-31T06:15:12;10.90;99.90
15819;DHT22;8010;53.986;12.106;2023-10-31T06:17:38;10.90;99.90
15819;DHT22;8010;53.986;12.106;2023-10-31T06:20:07;10.90;99.90
15819;DHT22;8010;53.986;12.106;2023-10-31T06:22:33;10.90;99.90
15819;DHT22;8010;53.986;12.106;2023-10-31T06:24:58;10.80;99.90
15819;DHT22;8010;53.986;12.106;2023-10-31T06:27:23;10.80;99.90
15819;DHT22;8010;53.986;12.106;2023-10-31T06:29:49;10.90;99.90
15819;DHT22;8010;53.986;12.106;2023-10-31T06:32:15;10.90;99.90
15819;DHT22;8010;53.986;12.106;2023-10-31T06:34:40;10.90;99.90
15819;DHT22;8010;53.986;12.106;2023-10-31T06:37:06;10.90;99.90
15819;DHT22;8010;53.986;12.106;2023-10-31T06:39:31;10.90;99.90
15819;DHT22;8010;53.986;12.106;2023-10-31T06:41:58;11.00;99.90
15819;DHT22;8010;53.986;12.106;2023-10-31T06:44:23;11.00;99.90
15819;DHT22;8010;53.986;12.106;2023-10-31T06:46:49;11.00;99.90
15819;DHT22;8010;53.986;12.106;2023-10-31T06:49:15;11.10;99.90
15819;DHT22;8010;53.986;12.106;2023-10-31T06:51:41;11.20;99.90
15819;DHT22;8010;53.986;12.106;2023-10-31T06:54:06;11.30;99.90
15819;DHT22;8010;53.986;12.106;2023-10-31T06:56:32;11.30;99.90
15819;DHT22;8010;53.986;12.106;2023-10-31T06:58:57;11.30;99.90
15819;DHT22;8010;53.986;12.106;2023-10-31T07:01:23;11.40;99.90
15819;DHT22;8010;53.986;12.106;2023-10-31T07:03:48;11.40;99.90
15819;DHT22;8010;53.986;12.106;2023-10-31T07:06:14;11.40;99.90
15819;DHT22;8010;53.986;12.106;2023-10-31T07:08:39;11.40;99.90
15819;DHT22;8010;53.986;12.106;2023-10-31T07:11:05;11.50;99.90
15819;DHT22;8010;53.986;12.106;2023-10-31T07:13:31;11.50;99.90
15819;DHT22;8010;53.986;12.106;2023-10-31T07:15:56;11.60;99.90
15819;DHT22;8010;53.986;12.106;2023-10-31T07:18:22;11.60;99.90
15819;DHT22;8010;53.986;12.106;2023-10-31T07:20:47;11.60;99.90
15819;DHT22;8010;53.986;12.106;2023-10-31T07:23:13;11.60;99.90
15819;DHT22;8010;53.986;12.106;2023-10-31T07:25:38;11.60;99.90
15819;DHT22;8010;53.986;12.106;2023-10-31T07:28:04;11.60;99.90
15819;DHT22;8010;53.986;12.106;2023-10-31T07:30:30;11.70;99.90
15819;DHT22;8010;53.986;12.106;2023-10-31T07:32:55;11.70;99.90
15819;DHT22;8010;53.986;12.106;2023-10-31T07:35:21;11.70;99.90
15819;DHT22;8010;53.986;12.106;2023-10-31T07:37:46;11.80;99.90
15819;DHT22;8010;53.986;12.106;2023-10-31T07:40:12;11.70;99.90
15819;DHT22;8010;53.986;12.106;2023-10-31T07:42:38;11.80;99.90
15819;DHT22;8010;53.986;12.106;2023-10-31T07:45:04;11.90;99.90
15819;DHT22;8010;53.986;12.106;2023-10-31T07:47:29;11.90;99.90
15819;DHT22;8010;53.986;12.106;2023-10-31T07:49:55;12.00;99.90
15819;DHT22;8010;53.986;12.106;2023-10-31T07:52:20;12.00;99.90
15819;DHT22;8010;53.986;12.106;2023-10-31T07:54:46;12.00;99.90
15819;DHT22;8010;53.986;12.106;2023-10-31T07:57:12;12.10;99.90
15819;DHT22;8010;53.986;12.106;2023-10-31T07:59:37;12.10;99.90
15819;DHT22;8010;53.986;12.106;2023-10-31T08:02:03;12.10;99.90
15819;DHT22;8010;53.986;12.106;2023-10-31T08:04:29;12.10;99.90
15819;DHT22;8010;53.986;12.106;2023-10-31T08:06:55;12.20;99.90
15819;DHT22;8010;53.986;12.106;2023-10-31T08:09:21;12.20;99.90
15819;DHT22;8010;53.986;12.106;2023-10-31T08:11:46;12.20;99.90
15819;DHT22;8010;53.986;12.106;2023-10-31T08:14:12;12.30;99.90
15819;DHT22;8010;53.986;12.106;2023-10-31T08:16:37;12.30;99.90
15819;DHT22;8010;53.986;12.106;2023-10-31T08:19:03;12.30;99.90
15819;DHT22;8010;53.986;12.106;2023-10-31T08:21:28;12.40;99.90
15819;DHT22;8010;53.986;12.106;2023-10-31T08:23:59;12.40;99.90
15819;DHT22;8010;53.986;12.106;2023-10-31T08:26:25;12.40;99.90
15819;DHT22;8010;53.986;12.106;2023-10-31T08:28:50;12.50;99.90
15819;DHT22;8010;53.986;12.106;2023-10-31T08:31:17;12.40;99.90
15819;DHT22;8010;53.986;12.106;2023-10-31T08:33:42;12.50;99.90
15819;DHT22;8010;53.986;12.106;2023-10-31T08:36:08;12.50;99.90
15819;DHT22;8010;53.986;12.106;2023-10-31T08:38:34;12.50;99.90
15819;DHT22;8010;53.986;12.106;2023-10-31T08:40:59;12.50;99.90
15819;DHT22;8010;53.986;12.106;2023-10-31T08:43:25;12.50;99.90
15819;DHT22;8010;53.986;12.106;2023-10-31T08:45:51;12.60;99.90
15819;DHT22;8010;53.986;12.106;2023-10-31T08:48:16;12.60;99.90
15819;DHT22;8010;53.986;12.106;2023-10-31T08:50:42;12.60;99.90
15819;DHT22;8010;53.986;12.106;2023-10-31T08:53:07;12.60;99.90
15819;DHT22;8010;53.986;12.106;2023-10-31T08:55:33;12.60;99.90
15819;DHT22;8010;53.986;12.106;2023-10-31T08:57:58;12.60;99.90
15819;DHT22;8010;53.986;12.106;2023-10-31T09:00:24;12.60;99.90
15819;DHT22;8010;53.986;12.106;2023-10-31T09:02:50;12.60;99.90
15819;DHT22;8010;53.986;12.106;2023-10-31T09:05:15;12.70;99.90
15819;DHT22;8010;53.986;12.106;2023-10-31T09:07:41;12.60;99.90
15819;DHT22;8010;53.986;12.106;2023-10-31T09:10:07;12.60;99.90
15819;DHT22;8010;53.986;12.106;2023-10-31T09:12:32;12.60;99.90
15819;DHT22;8010;53.986;12.106;2023-10-31T09:14:58;12.60;99.90
15819;DHT22;8010;53.986;12.106;2023-10-31T09:17:23;12.60;99.90
15819;DHT22;8010;53.986;12.106;2023-10-31T09:19:49;12.50;99.90
15819;DHT22;8010;53.986;12.106;2023-10-31T09:22:14;12.50;99.90
15819;DHT22;8010;53.986;12.106;2023-10-31T09:24:41;12.50;99.90
15819;DHT22;8010;53.986;12.106;2023-10-31T09:27:08;12.60;99.90
15819;DHT22;8010;53.986;12.106;2023-10-31T09:29:34;12.50;99.90
15819;DHT22;8010;53.986;12.106;2023-10-31T09:32:00;12.50;99.90
15819;DHT22;8010;53.986;12.106;2023-10-31T09:34:25;12.40;99.90
15819;DHT22;8010;53.986;12.106;2023-10-31T09:36:51;12.40;99.90
15819;DHT22;8010;53.986;12.106;2023-10-31T09:39:17;12.30;99.90
15819;DHT22;8010;53.986;12.106;2023-10-31T09:41:43;12.30;99.90
15819;DHT22;8010;53.986;12.106;2023-10-31T09:44:08;12.30;99.90
15819;DHT22;8010;53.986;12.106;2023-10-31T09:46:35;12.30;99.90
15819;DHT22;8010;53.986;12.106;2023-10-31T09:49:00;12.30;99.90
15819;DHT22;8010;53.986;12.106;2023-10-31T09:51:27;12.30;99.90
15819;DHT22;8010;53.986;12.106;2023-10-31T09:53:54;12.40;99.90
15819;DHT22;8010;53.986;12.106;2023-10-31T09:56:21;12.30;99.90
15819;DHT22;8010;53.986;12.106;2023-10-31T09:58:47;12.40;99.90
15819;DHT22;8010;53.986;12.106;2023-10-31T10:01:12;12.30;99.90
15819;DHT22;8010;53.986;12.106;2023-10-31T10:03:42;12.30;99.90
15819;DHT22;8010;53.986;12.106;2023-10-31T10:06:08;12.30;99.90
15819;DHT22;8010;53.986;12.106;2023-10-31T10:08:37;12.20;99.90
15819;DHT22;8010;53.986;12.106;2023-10-31T10:11:04;12.20;99.90
15819;DHT22;8010;53.986;12.106;2023-10-31T10:13:30;12.20;99.90
15819;DHT22;8010;53.986;12.106;2023-10-31T10:15:56;12.20;99.90
15819;DHT22;8010;53.986;12.106;2023-10-31T10:18:28;12.10;99.90
15819;DHT22;8010;53.986;12.106;2023-10-31T10:20:55;12.10;99.90
15819;DHT22;8010;53.986;12.106;2023-10-31T10:23:22;12.10;99.90
15819;DHT22;8010;53.986;12.106;2023-10-31T10:25:50;12.10;99.90
15819;DHT22;8010;53.986;12.106;2023-10-31T10:28:17;12.00;99.90
15819;DHT22;8010;53.986;12.106;2023-10-31T10:30:45;12.00;99.90
15819;DHT22;8010;53.986;12.106;2023-10-31T10:33:12;12.00;99.90
15819;DHT22;8010;53.986;12.106;2023-10-31T10:35:38;12.00;99.90
15819;DHT22;8010;53.986;12.106;2023-10-31T10:38:10;12.00;99.90
15819;DHT22;8010;53.986;12.106;2023-10-31T10:40:43;12.00;99.90
15819;DHT22;8010;53.986;12.106;2023-10-31T10:43:28;12.00;99.90
15819;DHT22;8010;53.986;12.106;2023-10-31T10:45:57;12.00;99.90
15819;DHT22;8010;53.986;12.106;2023-10-31T10:48:26;12.00;99.90
15819;DHT22;8010;53.986;12.106;2023-10-31T10:50:57;12.10;99.90
15819;DHT22;8010;53.986;12.106;2023-10-31T10:53:24;12.00;99.90
15819;DHT22;8010;53.986;12.106;2023-10-31T10:55:59;12.10;99.90
15819;DHT22;8010;53.986;12.106;2023-10-31T10:58:52;12.10;99.90
15819;DHT22;8010;53.986;12.106;2023-10-31T11:01:20;12.10;99.90
15819;DHT22;8010;53.986;12.106;2023-10-31T11:03:46;12.10;99.90
15819;DHT22;8010;53.986;12.106;2023-10-31T11:06:12;12.10;99.90
15819;DHT22;8010;53.986;12.106;2023-10-31T11:08:39;12.00;99.90
15819;DHT22;8010;53.986;12.106;2023-10-31T11:11:05;12.10;99.90
15819;DHT22;8010;53.986;12.106;2023-10-31T11:13:32;12.00;99.90
15819;DHT22;8010;53.986;12.106;2023-10-31T11:16:01;12.10;99.90
15819;DHT22;8010;53.986;12.106;2023-10-31T11:18:29;12.10;99.90
15819;DHT22;8010;53.986;12.106;2023-10-31T11:20:55;12.00;99.90
15819;DHT22;8010;53.986;12.106;2023-10-31T11:23:21;12.00;99.90
15819;DHT22;8010;53.986;12.106;2023-10-31T11:25:49;12.00;99.90
15819;DHT22;8010;53.986;12.106;2023-10-31T11:28:18;12.00;99.90
15819;DHT22;8010;53.986;12.106;2023-10-31T11:30:47;12.00;99.90
15819;DHT22;8010;53.986;12.106;2023-10-31T11:33:15;11.90;99.90
15819;DHT22;8010;53.986;12.106;2023-10-31T11:35:41;11.90;99.90
15819;DHT22;8010;53.986;12.106;2023-10-31T11:38:10;11.90;99.90
15819;DHT22;8010;53.986;12.106;2023-10-31T11:40:58;11.80;99.90
15819;DHT22;8010;53.986;12.106;2023-10-31T11:43:25;11.80;99.90
15819;DHT22;8010;53.986;12.106;2023-10-31T11:45:50;11.80;99.90
15819;DHT22;8010;53.986;12.106;2023-10-31T11:48:17;11.80;99.90
15819;DHT22;8010;53.986;12.106;2023-10-31T11:50:42;11.70;99.90
15819;DHT22;8010;53.986;12.106;2023-10-31T11:53:13;11.70;99.90
15819;DHT22;8010;53.986;12.106;2023-10-31T11:55:46;11.70;99.90
15819;DHT22;8010;53.986;12.106;2023-10-31T11:58:20;11.70;99.90
15819;DHT22;8010;53.986;12.106;2023-10-31T12:00:47;11.70;99.90
15819;DHT22;8010;53.986;12.106;2023-10-31T12:03:19;11.70;99.90
15819;DHT22;8010;53.986;12.106;2023-10-31T12:05:52;11.70;99.90
15819;DHT22;8010;53.986;12.106;2023-10-31T12:08:36;11.70;99.90
15819;DHT22;8010;53.986;12.106;2023-10-31T12:11:07;11.80;99.90
15819;DHT22;8010;53.986;12.106;2023-10-31T12:13:33;11.80;99.90
15819;DHT22;8010;53.986;12.106;2023-10-31T12:15:59;11.80;99.90
15819;DHT22;8010;53.986;12.106;2023-10-31T12:18:27;11.70;99.90
15819;DHT22;8010;53.986;12.106;2023-10-31T12:20:53;11.80;99.90
15819;DHT22;8010;53.986;12.106;2023-10-31T12:23:19;11.80;99.90
15819;DHT22;8010;53.986;12.106;2023-10-31T12:25:48;11.80;99.90
15819;DHT22;8010;53.986;12.106;2023-10-31T12:28:18;11.80;99.90
15819;DHT22;8010;53.986;12.106;2023-10-31T12:30:52;11.80;99.90
15819;DHT22;8010;53.986;12.106;2023-10-31T12:33:25;11.80;99.90
15819;DHT22;8010;53.986;12.106;2023-10-31T12:35:58;11.80;99.90
15819;DHT22;8010;53.986;12.106;2023-10-31T12:38:24;11.80;99.90
15819;DHT22;8010;53.986;12.106;2023-10-31T12:40:51;11.80;99.90
15819;DHT22;8010;53.986;12.106;2023-10-31T12:43:17;11.80;99.90
15819;DHT22;8010;53.986;12.106;2023-10-31T12:45:43;11.80;99.90
15819;DHT22;8010;53.986;12.106;2023-10-31T12:48:10;11.60;99.90
15819;DHT22;8010;53.986;12.106;2023-10-31T12:50:38;11.40;99.90
15819;DHT22;8010;53.986;12.106;2023-10-31T12:53:06;11.20;99.90
15819;DHT22;8010;53.986;12.106;2023-10-31T12:55:39;11.00;99.90
15819;DHT22;8010;53.986;12.106;2023-10-31T12:58:05;10.80;99.90
15819;DHT22;8010;53.986;12.106;2023-10-31T13:00:33;10.50;99.90
15819;DHT22;8010;53.986;12.106;2023-10-31T13:03:01;10.40;99.90
15819;DHT22;8010;53.986;12.106;2023-10-31T13:05:27;10.30;99.90
15819;DHT22;8010;53.986;12.106;2023-10-31T13:07:55;10.20;99.90
15819;DHT22;8010;53.986;12.106;2023-10-31T13:10:23;10.10;99.90
15819;DHT22;8010;53.986;12.106;2023-10-31T13:12:50;10.10;99.90
15819;DHT22;8010;53.986;12.106;2023-10-31T13:15:16;10.00;99.90
15819;DHT22;8010;53.986;12.106;2023-10-31T13:17:44;9.90;99.90
15819;DHT22;8010;53.986;12.106;2023-10-31T13:20:10;9.90;99.90
15819;DHT22;8010;53.986;12.106;2023-10-31T13:22:37;9.90;99.90
15819;DHT22;8010;53.986;12.106;2023-10-31T13:25:07;9.80;99.90
15819;DHT22;8010;53.986;12.106;2023-10-31T13:27:35;9.80;99.90
15819;DHT22;8010;53.986;12.106;2023-10-31T13:30:01;9.70;99.90
15819;DHT22;8010;53.986;12.106;2023-10-31T13:32:27;9.70;99.90
15819;DHT22;8010;53.986;12.106;2023-10-31T13:34:53;9.70;99.90
15819;DHT22;8010;53.986;12.106;2023-10-31T13:37:18;9.60;99.90
15819;DHT22;8010;53.986;12.106;2023-10-31T13:39:44;9.60;99.90
15819;DHT22;8010;53.986;12.106;2023-10-31T13:42:09;9.60;99.90
15819;DHT22;8010;53.986;12.106;2023-10-31T13:44:36;9.50;99.90
15819;DHT22;8010;53.986;12.106;2023-10-31T13:47:02;9.50;99.90
15819;DHT22;8010;53.986;12.106;2023-10-31T13:49:27;9.50;99.90
15819;DHT22;8010;53.986;12.106;2023-10-31T13:51:53;9.60;99.90
15819;DHT22;8010;53.986;12.106;2023-10-31T13:54:18;9.60;99.90
15819;DHT22;8010;53.986;12.106;2023-10-31T13:56:45;9.60;99.90
15819;DHT22;8010;53.986;12.106;2023-10-31T13:59:11;9.70;99.90
15819;DHT22;8010;53.986;12.106;2023-10-31T14:01:36;9.70;99.90
15819;DHT22;8010;53.986;12.106;2023-10-31T14:04:02;9.70;99.90
15819;DHT22;8010;53.986;12.106;2023-10-31T14:06:28;9.70;99.90
15819;DHT22;8010;53.986;12.106;2023-10-31T14:08:56;9.70;99.90
15819;DHT22;8010;53.986;12.106;2023-10-31T14:11:22;9.70;99.90
15819;DHT22;8010;53.986;12.106;2023-10-31T14:13:48;9.60;99.90
15819;DHT22;8010;53.986;12.106;2023-10-31T14:16:14;9.60;99.90
15819;DHT22;8010;53.986;12.106;2023-10-31T14:18:40;9.60;99.90
15819;DHT22;8010;53.986;12.106;2023-10-31T14:21:06;9.60;99.90
15819;DHT22;8010;53.986;12.106;2023-10-31T14:23:31;9.60;99.90
15819;DHT22;8010;53.986;12.106;2023-10-31T14:25:57;9.50;99.90
15819;DHT22;8010;53.986;12.106;2023-10-31T14:28:22;9.40;99.90
15819;DHT22;8010;53.986;12.106;2023-10-31T14:30:48;9.50;99.90
15819;DHT22;8010;53.986;12.106;2023-10-31T14:33:13;9.40;99.90
15819;DHT22;8010;53.986;12.106;2023-10-31T14:35:39;9.40;99.90
15819;DHT22;8010;53.986;12.106;2023-10-31T14:38:04;9.40;99.90
15819;DHT22;8010;53.986;12.106;2023-10-31T14:40:30;9.90;99.90
15819;DHT22;8010;53.986;12.106;2023-10-31T14:42:56;9.30;99.90
15819;DHT22;8010;53.986;12.106;2023-10-31T14:45:21;9.40;99.90
15819;DHT22;8010;53.986;12.106;2023-10-31T14:47:47;9.30;99.90
15819;DHT22;8010;53.986;12.106;2023-10-31T14:50:12;9.30;99.90
15819;DHT22;8010;53.986;12.106;2023-10-31T14:52:38;9.20;99.90
15819;DHT22;8010;53.986;12.106;2023-10-31T14:55:04;9.30;99.90
15819;DHT22;8010;53.986;12.106;2023-10-31T14:57:29;9.30;99.90
15819;DHT22;8010;53.986;12.106;2023-10-31T14:59:55;9.30;99.90
15819;DHT22;8010;53.986;12.106;2023-10-31T15:02:22;9.20;99.90
15819;DHT22;8010;53.986;12.106;2023-10-31T15:04:48;9.20;99.90
15819;DHT22;8010;53.986;12.106;2023-10-31T15:07:13;9.40;99.90
15819;DHT22;8010;53.986;12.106;2023-10-31T15:09:39;9.20;99.90
15819;DHT22;8010;53.986;12.106;2023-10-31T15:12:06;9.10;99.90
15819;DHT22;8010;53.986;12.106;2023-10-31T15:14:31;9.00;99.90
15819;DHT22;8010;53.986;12.106;2023-10-31T15:16:57;9.00;99.90
15819;DHT22;8010;53.986;12.106;2023-10-31T15:19:22;9.00;99.90
15819;DHT22;8010;53.986;12.106;2023-10-31T15:21:48;8.90;99.90
15819;DHT22;8010;53.986;12.106;2023-10-31T15:24:14;8.90;99.90
15819;DHT22;8010;53.986;12.106;2023-10-31T15:26:39;8.80;99.90